Winterton, Canada
Current Conditions -  °F | °C
As of 3:00 AM on Monday 24 Nov 2014 (Local Time) from CYYT Reporting Station
Scattered Clouds Scattered Clouds  
Wind Chill: 22°   Ceiling: Unl
Heat Index: 30°   Visibility: 15mi
Dew Point: 23°   Wind: 9mph
Humidity: 75%   Direction: 300°WNW
Pressure: 30.05"   Gusts: 18mph
Location:  47.97°N, 53.33°W
Report Text: CYYT 240600Z 30008G16KT 250V330 15SM FEW035 SCT220 M01/M05 A3005 RMK SC2CI1 SLP184
Loading
Personal Weather Stations






























Interactive Weather Map New forecast layout! Learn more

10-Day Weather Forecast

Advertisements
Track Severe Weather on mobile